sensor_id;sensor_type;location;lat;lon;timestamp;P1;durP1;ratioP1;P2;durP2;ratioP2
46290;SDS011;32023;44.444;26.006;2023-07-29T00:01:15;12.23;;;6.10;;
46290;SDS011;32023;44.444;26.006;2023-07-29T00:03:42;17.63;;;6.60;;
46290;SDS011;32023;44.444;26.006;2023-07-29T00:06:09;11.75;;;5.72;;
46290;SDS011;32023;44.444;26.006;2023-07-29T00:08:35;15.23;;;6.25;;
46290;SDS011;32023;44.444;26.006;2023-07-29T00:11:01;15.63;;;6.65;;
46290;SDS011;32023;44.444;26.006;2023-07-29T00:13:28;14.48;;;5.65;;
46290;SDS011;32023;44.444;26.006;2023-07-29T00:15:54;13.77;;;5.20;;
46290;SDS011;32023;44.444;26.006;2023-07-29T00:18:21;18.20;;;5.50;;
46290;SDS011;32023;44.444;26.006;2023-07-29T00:20:48;10.65;;;5.80;;
46290;SDS011;32023;44.444;26.006;2023-07-29T00:23:16;13.45;;;4.63;;
46290;SDS011;32023;44.444;26.006;2023-07-29T00:25:44;12.80;;;5.00;;
46290;SDS011;32023;44.444;26.006;2023-07-29T00:28:11;12.68;;;5.43;;
46290;SDS011;32023;44.444;26.006;2023-07-29T00:30:38;11.93;;;5.40;;
46290;SDS011;32023;44.444;26.006;2023-07-29T00:33:04;16.58;;;4.93;;
46290;SDS011;32023;44.444;26.006;2023-07-29T00:35:30;11.10;;;5.70;;
46290;SDS011;32023;44.444;26.006;2023-07-29T00:37:56;10.48;;;5.10;;
46290;SDS011;32023;44.444;26.006;2023-07-29T00:40:23;8.57;;;4.88;;
46290;SDS011;32023;44.444;26.006;2023-07-29T00:42:49;9.82;;;4.75;;
46290;SDS011;32023;44.444;26.006;2023-07-29T00:45:16;8.88;;;4.80;;
46290;SDS011;32023;44.444;26.006;2023-07-29T00:47:42;11.82;;;4.40;;
46290;SDS011;32023;44.444;26.006;2023-07-29T00:50:12;10.43;;;4.30;;
46290;SDS011;32023;44.444;26.006;2023-07-29T00:52:40;9.40;;;4.22;;
46290;SDS011;32023;44.444;26.006;2023-07-29T00:55:07;11.50;;;4.32;;
46290;SDS011;32023;44.444;26.006;2023-07-29T00:57:33;10.45;;;4.85;;
46290;SDS011;32023;44.444;26.006;2023-07-29T01:00:00;13.95;;;5.28;;
46290;SDS011;32023;44.444;26.006;2023-07-29T01:02:27;18.05;;;5.10;;
46290;SDS011;32023;44.444;26.006;2023-07-29T01:04:55;10.32;;;5.15;;
46290;SDS011;32023;44.444;26.006;2023-07-29T01:15:43;9.63;;;4.53;;
46290;SDS011;32023;44.444;26.006;2023-07-29T01:18:14;11.45;;;4.72;;
46290;SDS011;32023;44.444;26.006;2023-07-29T01:20:47;10.68;;;5.03;;
46290;SDS011;32023;44.444;26.006;2023-07-29T01:23:23;10.27;;;5.18;;
46290;SDS011;32023;44.444;26.006;2023-07-29T01:28:16;10.73;;;5.38;;
46290;SDS011;32023;44.444;26.006;2023-07-29T01:30:42;13.07;;;4.95;;
46290;SDS011;32023;44.444;26.006;2023-07-29T01:35:52;16.92;;;5.95;;
46290;SDS011;32023;44.444;26.006;2023-07-29T01:38:35;9.65;;;4.95;;
46290;SDS011;32023;44.444;26.006;2023-07-29T01:41:04;8.13;;;4.72;;
46290;SDS011;32023;44.444;26.006;2023-07-29T01:43:33;9.10;;;5.32;;
46290;SDS011;32023;44.444;26.006;2023-07-29T01:46:04;10.48;;;4.63;;
46290;SDS011;32023;44.444;26.006;2023-07-29T01:48:30;9.82;;;5.18;;
46290;SDS011;32023;44.444;26.006;2023-07-29T01:50:57;9.18;;;4.85;;
46290;SDS011;32023;44.444;26.006;2023-07-29T01:53:23;9.15;;;5.68;;
46290;SDS011;32023;44.444;26.006;2023-07-29T01:55:49;8.32;;;4.57;;
46290;SDS011;32023;44.444;26.006;2023-07-29T01:58:16;11.88;;;4.43;;
46290;SDS011;32023;44.444;26.006;2023-07-29T02:00:42;15.15;;;5.10;;
46290;SDS011;32023;44.444;26.006;2023-07-29T02:03:08;7.82;;;4.90;;
46290;SDS011;32023;44.444;26.006;2023-07-29T02:05:34;12.77;;;4.57;;
46290;SDS011;32023;44.444;26.006;2023-07-29T02:08:00;8.20;;;4.97;;
46290;SDS011;32023;44.444;26.006;2023-07-29T02:10:27;14.25;;;5.78;;
46290;SDS011;32023;44.444;26.006;2023-07-29T02:12:53;7.00;;;4.30;;
46290;SDS011;32023;44.444;26.006;2023-07-29T02:15:19;23.42;;;5.85;;
46290;SDS011;32023;44.444;26.006;2023-07-29T02:17:46;11.15;;;5.00;;
46290;SDS011;32023;44.444;26.006;2023-07-29T02:20:12;10.32;;;4.80;;
46290;SDS011;32023;44.444;26.006;2023-07-29T02:22:38;7.78;;;4.57;;
46290;SDS011;32023;44.444;26.006;2023-07-29T02:25:05;9.80;;;5.30;;
46290;SDS011;32023;44.444;26.006;2023-07-29T02:27:31;8.73;;;4.95;;
46290;SDS011;32023;44.444;26.006;2023-07-29T02:29:58;8.13;;;4.57;;
46290;SDS011;32023;44.444;26.006;2023-07-29T02:32:24;11.80;;;4.82;;
46290;SDS011;32023;44.444;26.006;2023-07-29T02:34:51;9.85;;;4.80;;
46290;SDS011;32023;44.444;26.006;2023-07-29T02:37:17;8.98;;;5.05;;
46290;SDS011;32023;44.444;26.006;2023-07-29T02:39:43;8.00;;;4.85;;
46290;SDS011;32023;44.444;26.006;2023-07-29T02:42:09;9.35;;;4.63;;
46290;SDS011;32023;44.444;26.006;2023-07-29T02:44:36;15.50;;;5.22;;
46290;SDS011;32023;44.444;26.006;2023-07-29T02:47:02;8.35;;;4.97;;
46290;SDS011;32023;44.444;26.006;2023-07-29T02:49:29;13.40;;;5.13;;
46290;SDS011;32023;44.444;26.006;2023-07-29T02:51:55;9.65;;;4.88;;
46290;SDS011;32023;44.444;26.006;2023-07-29T02:54:22;10.90;;;5.50;;
46290;SDS011;32023;44.444;26.006;2023-07-29T02:56:49;12.35;;;4.38;;
46290;SDS011;32023;44.444;26.006;2023-07-29T02:59:16;10.15;;;4.82;;
46290;SDS011;32023;44.444;26.006;2023-07-29T03:01:42;9.98;;;5.30;;
46290;SDS011;32023;44.444;26.006;2023-07-29T03:04:08;10.13;;;5.18;;
46290;SDS011;32023;44.444;26.006;2023-07-29T03:06:38;8.48;;;4.68;;
46290;SDS011;32023;44.444;26.006;2023-07-29T03:09:04;12.73;;;4.80;;
46290;SDS011;32023;44.444;26.006;2023-07-29T03:11:30;14.80;;;4.78;;
46290;SDS011;32023;44.444;26.006;2023-07-29T03:13:57;10.93;;;5.28;;
46290;SDS011;32023;44.444;26.006;2023-07-29T03:16:23;12.18;;;4.82;;
46290;SDS011;32023;44.444;26.006;2023-07-29T03:18:49;11.38;;;5.05;;
46290;SDS011;32023;44.444;26.006;2023-07-29T03:21:16;9.63;;;5.00;;
46290;SDS011;32023;44.444;26.006;2023-07-29T03:23:42;8.25;;;4.63;;
46290;SDS011;32023;44.444;26.006;2023-07-29T03:26:08;11.27;;;5.32;;
46290;SDS011;32023;44.444;26.006;2023-07-29T03:28:36;10.00;;;5.22;;
46290;SDS011;32023;44.444;26.006;2023-07-29T03:31:05;11.85;;;4.68;;
46290;SDS011;32023;44.444;26.006;2023-07-29T03:33:32;12.13;;;5.03;;
46290;SDS011;32023;44.444;26.006;2023-07-29T03:35:59;11.57;;;5.22;;
46290;SDS011;32023;44.444;26.006;2023-07-29T03:38:25;11.15;;;4.70;;
46290;SDS011;32023;44.444;26.006;2023-07-29T03:40:52;10.05;;;5.10;;
46290;SDS011;32023;44.444;26.006;2023-07-29T03:43:18;10.38;;;4.35;;
46290;SDS011;32023;44.444;26.006;2023-07-29T03:45:45;11.13;;;4.97;;
46290;SDS011;32023;44.444;26.006;2023-07-29T03:48:11;7.15;;;4.47;;
46290;SDS011;32023;44.444;26.006;2023-07-29T03:50:37;7.43;;;4.13;;
46290;SDS011;32023;44.444;26.006;2023-07-29T03:53:04;10.25;;;4.60;;
46290;SDS011;32023;44.444;26.006;2023-07-29T03:55:30;10.20;;;4.57;;
46290;SDS011;32023;44.444;26.006;2023-07-29T03:57:57;7.45;;;4.03;;
46290;SDS011;32023;44.444;26.006;2023-07-29T04:00:24;13.27;;;4.53;;
46290;SDS011;32023;44.444;26.006;2023-07-29T04:02:51;10.20;;;4.65;;
46290;SDS011;32023;44.444;26.006;2023-07-29T04:05:18;5.53;;;3.90;;
46290;SDS011;32023;44.444;26.006;2023-07-29T04:07:44;10.57;;;4.68;;
46290;SDS011;32023;44.444;26.006;2023-07-29T04:10:11;8.93;;;4.10;;
46290;SDS011;32023;44.444;26.006;2023-07-29T04:12:38;12.95;;;3.92;;
46290;SDS011;32023;44.444;26.006;2023-07-29T04:15:04;7.32;;;4.00;;
46290;SDS011;32023;44.444;26.006;2023-07-29T04:17:31;6.70;;;3.72;;
46290;SDS011;32023;44.444;26.006;2023-07-29T04:19:57;13.85;;;3.72;;
46290;SDS011;32023;44.444;26.006;2023-07-29T04:22:23;9.48;;;4.47;;
46290;SDS011;32023;44.444;26.006;2023-07-29T04:24:49;13.15;;;4.15;;
46290;SDS011;32023;44.444;26.006;2023-07-29T04:27:16;8.25;;;4.00;;
46290;SDS011;32023;44.444;26.006;2023-07-29T04:29:42;9.80;;;3.70;;
46290;SDS011;32023;44.444;26.006;2023-07-29T04:32:08;7.88;;;3.67;;
46290;SDS011;32023;44.444;26.006;2023-07-29T04:34:34;11.65;;;4.03;;
46290;SDS011;32023;44.444;26.006;2023-07-29T04:37:01;8.98;;;3.92;;
46290;SDS011;32023;44.444;26.006;2023-07-29T04:39:27;11.18;;;3.90;;
46290;SDS011;32023;44.444;26.006;2023-07-29T04:41:53;11.60;;;4.18;;
46290;SDS011;32023;44.444;26.006;2023-07-29T04:44:20;8.23;;;3.42;;
46290;SDS011;32023;44.444;26.006;2023-07-29T04:46:46;7.82;;;3.58;;
46290;SDS011;32023;44.444;26.006;2023-07-29T04:49:12;6.10;;;2.95;;
46290;SDS011;32023;44.444;26.006;2023-07-29T04:51:39;5.70;;;3.15;;
46290;SDS011;32023;44.444;26.006;2023-07-29T04:54:05;5.10;;;3.05;;
46290;SDS011;32023;44.444;26.006;2023-07-29T04:56:34;11.13;;;3.60;;
46290;SDS011;32023;44.444;26.006;2023-07-29T04:59:01;12.52;;;3.63;;
46290;SDS011;32023;44.444;26.006;2023-07-29T05:01:27;12.02;;;3.53;;
46290;SDS011;32023;44.444;26.006;2023-07-29T05:03:53;7.82;;;3.88;;
46290;SDS011;32023;44.444;26.006;2023-07-29T05:06:20;5.13;;;3.08;;
46290;SDS011;32023;44.444;26.006;2023-07-29T05:08:46;6.53;;;3.25;;
46290;SDS011;32023;44.444;26.006;2023-07-29T05:11:12;9.30;;;3.03;;
46290;SDS011;32023;44.444;26.006;2023-07-29T05:13:39;4.65;;;2.83;;
46290;SDS011;32023;44.444;26.006;2023-07-29T05:16:05;7.22;;;3.63;;
46290;SDS011;32023;44.444;26.006;2023-07-29T05:18:32;7.32;;;2.83;;
46290;SDS011;32023;44.444;26.006;2023-07-29T05:20:58;8.35;;;3.53;;
46290;SDS011;32023;44.444;26.006;2023-07-29T05:23:24;7.53;;;3.03;;
46290;SDS011;32023;44.444;26.006;2023-07-29T05:25:50;7.50;;;3.40;;
46290;SDS011;32023;44.444;26.006;2023-07-29T05:28:17;5.75;;;3.15;;
46290;SDS011;32023;44.444;26.006;2023-07-29T05:30:43;7.18;;;3.22;;
46290;SDS011;32023;44.444;26.006;2023-07-29T05:33:10;5.60;;;3.10;;
46290;SDS011;32023;44.444;26.006;2023-07-29T05:35:39;7.28;;;3.00;;
46290;SDS011;32023;44.444;26.006;2023-07-29T05:38:05;5.10;;;2.80;;
46290;SDS011;32023;44.444;26.006;2023-07-29T05:40:33;6.88;;;2.63;;
46290;SDS011;32023;44.444;26.006;2023-07-29T05:42:59;9.90;;;3.35;;
46290;SDS011;32023;44.444;26.006;2023-07-29T05:45:25;13.45;;;3.90;;
46290;SDS011;32023;44.444;26.006;2023-07-29T05:47:52;14.32;;;3.90;;
46290;SDS011;32023;44.444;26.006;2023-07-29T05:50:19;8.98;;;3.60;;
46290;SDS011;32023;44.444;26.006;2023-07-29T05:52:45;6.40;;;3.10;;
46290;SDS011;32023;44.444;26.006;2023-07-29T05:55:11;10.68;;;3.28;;
46290;SDS011;32023;44.444;26.006;2023-07-29T05:57:38;10.50;;;3.95;;
46290;SDS011;32023;44.444;26.006;2023-07-29T06:00:04;10.63;;;3.95;;
46290;SDS011;32023;44.444;26.006;2023-07-29T06:02:31;12.32;;;3.53;;
46290;SDS011;32023;44.444;26.006;2023-07-29T06:04:58;8.20;;;2.63;;
46290;SDS011;32023;44.444;26.006;2023-07-29T06:07:34;12.93;;;3.67;;
46290;SDS011;32023;44.444;26.006;2023-07-29T06:10:01;15.63;;;3.88;;
46290;SDS011;32023;44.444;26.006;2023-07-29T06:12:27;11.07;;;3.60;;
46290;SDS011;32023;44.444;26.006;2023-07-29T06:14:53;11.40;;;3.33;;
46290;SDS011;32023;44.444;26.006;2023-07-29T06:17:20;12.57;;;2.70;;
46290;SDS011;32023;44.444;26.006;2023-07-29T06:19:46;7.78;;;2.85;;
46290;SDS011;32023;44.444;26.006;2023-07-29T06:22:12;11.50;;;2.20;;
46290;SDS011;32023;44.444;26.006;2023-07-29T06:24:39;5.57;;;2.25;;
46290;SDS011;32023;44.444;26.006;2023-07-29T06:27:05;13.98;;;2.25;;
46290;SDS011;32023;44.444;26.006;2023-07-29T06:29:31;8.15;;;2.47;;
46290;SDS011;32023;44.444;26.006;2023-07-29T06:31:58;4.18;;;2.22;;
46290;SDS011;32023;44.444;26.006;2023-07-29T06:34:24;8.77;;;2.78;;
46290;SDS011;32023;44.444;26.006;2023-07-29T06:36:51;5.88;;;2.50;;
46290;SDS011;32023;44.444;26.006;2023-07-29T06:39:17;6.82;;;2.20;;
46290;SDS011;32023;44.444;26.006;2023-07-29T06:41:43;6.85;;;2.28;;
46290;SDS011;32023;44.444;26.006;2023-07-29T06:44:09;2.50;;;1.58;;
46290;SDS011;32023;44.444;26.006;2023-07-29T06:46:36;4.10;;;1.65;;
46290;SDS011;32023;44.444;26.006;2023-07-29T06:49:05;5.95;;;1.70;;
46290;SDS011;32023;44.444;26.006;2023-07-29T06:51:31;4.18;;;1.80;;
46290;SDS011;32023;44.444;26.006;2023-07-29T06:54:00;2.53;;;1.85;;
46290;SDS011;32023;44.444;26.006;2023-07-29T06:56:27;3.75;;;1.67;;
46290;SDS011;32023;44.444;26.006;2023-07-29T06:58:53;4.13;;;2.10;;
46290;SDS011;32023;44.444;26.006;2023-07-29T07:01:19;4.15;;;1.80;;
46290;SDS011;32023;44.444;26.006;2023-07-29T07:03:46;7.00;;;1.92;;
46290;SDS011;32023;44.444;26.006;2023-07-29T07:06:12;3.90;;;1.70;;
46290;SDS011;32023;44.444;26.006;2023-07-29T07:08:38;6.22;;;1.90;;
46290;SDS011;32023;44.444;26.006;2023-07-29T07:11:06;6.63;;;2.03;;
46290;SDS011;32023;44.444;26.006;2023-07-29T07:13:33;3.83;;;1.90;;
46290;SDS011;32023;44.444;26.006;2023-07-29T07:15:59;4.32;;;2.08;;
46290;SDS011;32023;44.444;26.006;2023-07-29T07:18:26;6.28;;;2.10;;
46290;SDS011;32023;44.444;26.006;2023-07-29T07:20:52;3.40;;;1.70;;
46290;SDS011;32023;44.444;26.006;2023-07-29T07:23:19;6.13;;;1.88;;
46290;SDS011;32023;44.444;26.006;2023-07-29T07:25:45;3.42;;;1.73;;
46290;SDS011;32023;44.444;26.006;2023-07-29T07:28:11;8.32;;;1.95;;
46290;SDS011;32023;44.444;26.006;2023-07-29T07:30:41;3.92;;;1.80;;
46290;SDS011;32023;44.444;26.006;2023-07-29T07:33:07;5.07;;;2.17;;
46290;SDS011;32023;44.444;26.006;2023-07-29T07:35:34;6.07;;;1.88;;
46290;SDS011;32023;44.444;26.006;2023-07-29T07:38:00;3.30;;;1.60;;
46290;SDS011;32023;44.444;26.006;2023-07-29T07:40:29;4.47;;;1.95;;
46290;SDS011;32023;44.444;26.006;2023-07-29T07:42:56;2.42;;;1.67;;
46290;SDS011;32023;44.444;26.006;2023-07-29T07:45:22;4.18;;;1.80;;
46290;SDS011;32023;44.444;26.006;2023-07-29T07:47:48;4.75;;;1.70;;
46290;SDS011;32023;44.444;26.006;2023-07-29T07:50:16;3.45;;;1.88;;
46290;SDS011;32023;44.444;26.006;2023-07-29T07:52:42;3.05;;;1.88;;
46290;SDS011;32023;44.444;26.006;2023-07-29T07:55:09;3.70;;;2.20;;
46290;SDS011;32023;44.444;26.006;2023-07-29T07:57:35;5.63;;;2.10;;
46290;SDS011;32023;44.444;26.006;2023-07-29T08:00:02;7.10;;;1.77;;
46290;SDS011;32023;44.444;26.006;2023-07-29T08:02:29;2.85;;;2.00;;
46290;SDS011;32023;44.444;26.006;2023-07-29T08:04:56;6.18;;;1.95;;
46290;SDS011;32023;44.444;26.006;2023-07-29T08:07:22;3.80;;;1.90;;
46290;SDS011;32023;44.444;26.006;2023-07-29T08:09:48;5.18;;;1.58;;
46290;SDS011;32023;44.444;26.006;2023-07-29T08:12:14;7.65;;;2.10;;
46290;SDS011;32023;44.444;26.006;2023-07-29T08:14:41;9.20;;;2.42;;
46290;SDS011;32023;44.444;26.006;2023-07-29T08:17:07;2.83;;;1.75;;
46290;SDS011;32023;44.444;26.006;2023-07-29T08:19:34;7.20;;;1.75;;
46290;SDS011;32023;44.444;26.006;2023-07-29T08:22:02;5.50;;;2.17;;
46290;SDS011;32023;44.444;26.006;2023-07-29T08:24:29;4.10;;;1.80;;
46290;SDS011;32023;44.444;26.006;2023-07-29T08:26:55;3.33;;;1.95;;
46290;SDS011;32023;44.444;26.006;2023-07-29T08:29:21;4.97;;;1.90;;
46290;SDS011;32023;44.444;26.006;2023-07-29T08:31:47;5.20;;;1.90;;
46290;SDS011;32023;44.444;26.006;2023-07-29T08:34:16;3.25;;;2.03;;
46290;SDS011;32023;44.444;26.006;2023-07-29T08:36:43;4.18;;;1.95;;
46290;SDS011;32023;44.444;26.006;2023-07-29T08:39:09;3.65;;;1.58;;
46290;SDS011;32023;44.444;26.006;2023-07-29T08:41:50;2.33;;;1.88;;
46290;SDS011;32023;44.444;26.006;2023-07-29T08:44:26;1.95;;;1.60;;
46290;SDS011;32023;44.444;26.006;2023-07-29T08:46:56;3.63;;;2.30;;
46290;SDS011;32023;44.444;26.006;2023-07-29T08:49:22;2.60;;;1.92;;
46290;SDS011;32023;44.444;26.006;2023-07-29T08:51:49;4.13;;;1.90;;
46290;SDS011;32023;44.444;26.006;2023-07-29T08:54:18;6.88;;;2.40;;
46290;SDS011;32023;44.444;26.006;2023-07-29T08:56:44;5.32;;;2.00;;
46290;SDS011;32023;44.444;26.006;2023-07-29T08:59:11;6.07;;;1.77;;
46290;SDS011;32023;44.444;26.006;2023-07-29T09:01:38;5.85;;;1.92;;
46290;SDS011;32023;44.444;26.006;2023-07-29T09:04:06;5.00;;;2.17;;
46290;SDS011;32023;44.444;26.006;2023-07-29T09:06:32;3.90;;;1.90;;
46290;SDS011;32023;44.444;26.006;2023-07-29T09:09:00;3.42;;;1.80;;
46290;SDS011;32023;44.444;26.006;2023-07-29T09:11:27;1.98;;;1.77;;
46290;SDS011;32023;44.444;26.006;2023-07-29T09:13:54;5.80;;;2.17;;
46290;SDS011;32023;44.444;26.006;2023-07-29T09:16:20;3.22;;;1.70;;
46290;SDS011;32023;44.444;26.006;2023-07-29T09:18:47;5.20;;;1.90;;
46290;SDS011;32023;44.444;26.006;2023-07-29T09:21:17;5.47;;;2.08;;
46290;SDS011;32023;44.444;26.006;2023-07-29T09:23:51;4.32;;;2.05;;
46290;SDS011;32023;44.444;26.006;2023-07-29T09:26:28;2.40;;;1.80;;
46290;SDS011;32023;44.444;26.006;2023-07-29T09:28:55;6.82;;;1.90;;
46290;SDS011;32023;44.444;26.006;2023-07-29T09:31:23;2.72;;;1.73;;
46290;SDS011;32023;44.444;26.006;2023-07-29T09:33:53;4.28;;;1.90;;
46290;SDS011;32023;44.444;26.006;2023-07-29T09:36:23;4.00;;;2.03;;
46290;SDS011;32023;44.444;26.006;2023-07-29T09:38:53;5.07;;;1.70;;
46290;SDS011;32023;44.444;26.006;2023-07-29T09:41:24;1.55;;;1.45;;
46290;SDS011;32023;44.444;26.006;2023-07-29T09:43:58;2.10;;;1.60;;
46290;SDS011;32023;44.444;26.006;2023-07-29T09:46:32;2.33;;;1.75;;
46290;SDS011;32023;44.444;26.006;2023-07-29T09:49:03;5.90;;;1.60;;
46290;SDS011;32023;44.444;26.006;2023-07-29T09:51:30;4.30;;;1.95;;
46290;SDS011;32023;44.444;26.006;2023-07-29T09:54:02;3.30;;;1.80;;
46290;SDS011;32023;44.444;26.006;2023-07-29T09:56:28;3.78;;;2.20;;
46290;SDS011;32023;44.444;26.006;2023-07-29T09:58:55;2.95;;;1.90;;
46290;SDS011;32023;44.444;26.006;2023-07-29T10:01:22;2.33;;;1.58;;
46290;SDS011;32023;44.444;26.006;2023-07-29T10:03:49;2.75;;;1.58;;
46290;SDS011;32023;44.444;26.006;2023-07-29T10:06:15;3.95;;;1.67;;
46290;SDS011;32023;44.444;26.006;2023-07-29T10:08:43;3.88;;;1.80;;
46290;SDS011;32023;44.444;26.006;2023-07-29T10:11:10;6.60;;;1.60;;
46290;SDS011;32023;44.444;26.006;2023-07-29T10:13:38;2.05;;;1.63;;
46290;SDS011;32023;44.444;26.006;2023-07-29T10:16:04;4.97;;;1.83;;
46290;SDS011;32023;44.444;26.006;2023-07-29T10:18:31;4.07;;;1.92;;
46290;SDS011;32023;44.444;26.006;2023-07-29T10:20:58;1.90;;;1.58;;
46290;SDS011;32023;44.444;26.006;2023-07-29T10:23:26;2.33;;;1.67;;
46290;SDS011;32023;44.444;26.006;2023-07-29T10:26:03;3.08;;;1.80;;
46290;SDS011;32023;44.444;26.006;2023-07-29T10:28:31;4.63;;;2.00;;
46290;SDS011;32023;44.444;26.006;2023-07-29T10:30:59;1.80;;;1.50;;
46290;SDS011;32023;44.444;26.006;2023-07-29T10:33:28;2.60;;;1.60;;
46290;SDS011;32023;44.444;26.006;2023-07-29T10:35:58;3.60;;;1.67;;
46290;SDS011;32023;44.444;26.006;2023-07-29T10:38:24;3.83;;;1.50;;
46290;SDS011;32023;44.444;26.006;2023-07-29T10:40:55;1.70;;;1.50;;
46290;SDS011;32023;44.444;26.006;2023-07-29T10:43:27;4.20;;;1.63;;
46290;SDS011;32023;44.444;26.006;2023-07-29T10:45:57;1.50;;;1.27;;
46290;SDS011;32023;44.444;26.006;2023-07-29T10:48:42;3.35;;;1.60;;
46290;SDS011;32023;44.444;26.006;2023-07-29T10:53:56;1.58;;;1.40;;
46290;SDS011;32023;44.444;26.006;2023-07-29T10:56:28;2.20;;;1.63;;
46290;SDS011;32023;44.444;26.006;2023-07-29T10:58:56;3.90;;;1.60;;
46290;SDS011;32023;44.444;26.006;2023-07-29T11:01:41;1.95;;;1.75;;
46290;SDS011;32023;44.444;26.006;2023-07-29T11:14:59;1.75;;;1.60;;
46290;SDS011;32023;44.444;26.006;2023-07-29T11:17:52;2.35;;;1.50;;
46290;SDS011;32023;44.444;26.006;2023-07-29T11:20:28;1.83;;;1.33;;
46290;SDS011;32023;44.444;26.006;2023-07-29T11:22:57;1.50;;;1.40;;
46290;SDS011;32023;44.444;26.006;2023-07-29T11:25:25;2.40;;;1.42;;
46290;SDS011;32023;44.444;26.006;2023-07-29T11:27:55;1.20;;;1.10;;
46290;SDS011;32023;44.444;26.006;2023-07-29T11:30:23;4.97;;;1.55;;
46290;SDS011;32023;44.444;26.006;2023-07-29T11:32:54;1.93;;;1.40;;
46290;SDS011;32023;44.444;26.006;2023-07-29T11:35:21;2.33;;;1.60;;
46290;SDS011;32023;44.444;26.006;2023-07-29T11:37:48;1.50;;;1.40;;
46290;SDS011;32023;44.444;26.006;2023-07-29T11:40:19;2.10;;;1.50;;
46290;SDS011;32023;44.444;26.006;2023-07-29T11:42:47;2.58;;;1.52;;
46290;SDS011;32023;44.444;26.006;2023-07-29T11:45:18;3.28;;;1.75;;
46290;SDS011;32023;44.444;26.006;2023-07-29T11:47:45;2.10;;;1.50;;
46290;SDS011;32023;44.444;26.006;2023-07-29T11:50:13;4.95;;;1.80;;
46290;SDS011;32023;44.444;26.006;2023-07-29T11:52:40;1.63;;;1.30;;
46290;SDS011;32023;44.444;26.006;2023-07-29T11:55:11;5.30;;;1.77;;
46290;SDS011;32023;44.444;26.006;2023-07-29T11:57:39;3.20;;;1.55;;
46290;SDS011;32023;44.444;26.006;2023-07-29T12:00:07;4.80;;;1.88;;
46290;SDS011;32023;44.444;26.006;2023-07-29T12:02:38;3.22;;;1.77;;
46290;SDS011;32023;44.444;26.006;2023-07-29T12:05:07;1.90;;;1.60;;
46290;SDS011;32023;44.444;26.006;2023-07-29T12:07:35;3.40;;;1.75;;
46290;SDS011;32023;44.444;26.006;2023-07-29T12:10:04;1.88;;;1.67;;
46290;SDS011;32023;44.444;26.006;2023-07-29T12:12:31;4.70;;;2.13;;
46290;SDS011;32023;44.444;26.006;2023-07-29T12:14:57;3.05;;;2.08;;
46290;SDS011;32023;44.444;26.006;2023-07-29T12:17:23;3.25;;;2.13;;
46290;SDS011;32023;44.444;26.006;2023-07-29T12:19:53;3.15;;;1.60;;
46290;SDS011;32023;44.444;26.006;2023-07-29T12:22:20;4.03;;;1.65;;
46290;SDS011;32023;44.444;26.006;2023-07-29T12:24:47;8.85;;;1.52;;
46290;SDS011;32023;44.444;26.006;2023-07-29T12:27:18;2.38;;;1.80;;
46290;SDS011;32023;44.444;26.006;2023-07-29T12:29:48;2.28;;;1.90;;
46290;SDS011;32023;44.444;26.006;2023-07-29T12:32:18;1.70;;;1.60;;
46290;SDS011;32023;44.444;26.006;2023-07-29T12:34:44;2.42;;;1.25;;
46290;SDS011;32023;44.444;26.006;2023-07-29T12:37:13;3.97;;;2.03;;
46290;SDS011;32023;44.444;26.006;2023-07-29T12:39:40;1.83;;;1.50;;
46290;SDS011;32023;44.444;26.006;2023-07-29T12:42:07;3.78;;;1.70;;
46290;SDS011;32023;44.444;26.006;2023-07-29T12:44:34;3.67;;;1.73;;
46290;SDS011;32023;44.444;26.006;2023-07-29T12:47:03;3.78;;;1.67;;
46290;SDS011;32023;44.444;26.006;2023-07-29T12:49:30;4.03;;;1.67;;
46290;SDS011;32023;44.444;26.006;2023-07-29T12:51:58;4.35;;;1.70;;
46290;SDS011;32023;44.444;26.006;2023-07-29T12:54:24;4.07;;;1.65;;
46290;SDS011;32023;44.444;26.006;2023-07-29T12:56:51;3.90;;;1.92;;
46290;SDS011;32023;44.444;26.006;2023-07-29T12:59:17;2.38;;;1.90;;
46290;SDS011;32023;44.444;26.006;2023-07-29T13:01:43;2.17;;;1.65;;
46290;SDS011;32023;44.444;26.006;2023-07-29T13:04:10;2.03;;;1.67;;
46290;SDS011;32023;44.444;26.006;2023-07-29T13:06:37;3.05;;;1.75;;
46290;SDS011;32023;44.444;26.006;2023-07-29T13:09:04;1.92;;;1.60;;
46290;SDS011;32023;44.444;26.006;2023-07-29T13:11:30;3.90;;;1.80;;
46290;SDS011;32023;44.444;26.006;2023-07-29T13:14:00;2.63;;;1.40;;
46290;SDS011;32023;44.444;26.006;2023-07-29T13:16:27;4.68;;;2.10;;
46290;SDS011;32023;44.444;26.006;2023-07-29T13:18:54;4.40;;;2.15;;
46290;SDS011;32023;44.444;26.006;2023-07-29T13:21:21;7.22;;;1.85;;
46290;SDS011;32023;44.444;26.006;2023-07-29T13:23:47;3.17;;;1.70;;
46290;SDS011;32023;44.444;26.006;2023-07-29T13:26:16;4.20;;;1.60;;
46290;SDS011;32023;44.444;26.006;2023-07-29T13:28:43;2.17;;;1.58;;
46290;SDS011;32023;44.444;26.006;2023-07-29T13:31:09;3.88;;;2.00;;
46290;SDS011;32023;44.444;26.006;2023-07-29T13:33:35;2.97;;;1.60;;
46290;SDS011;32023;44.444;26.006;2023-07-29T13:36:02;2.97;;;1.52;;
46290;SDS011;32023;44.444;26.006;2023-07-29T13:38:29;4.35;;;1.70;;
46290;SDS011;32023;44.444;26.006;2023-07-29T13:40:55;4.50;;;1.92;;
46290;SDS011;32023;44.444;26.006;2023-07-29T13:43:21;3.88;;;1.60;;
46290;SDS011;32023;44.444;26.006;2023-07-29T13:45:48;2.80;;;1.67;;
46290;SDS011;32023;44.444;26.006;2023-07-29T13:48:15;2.28;;;1.55;;
46290;SDS011;32023;44.444;26.006;2023-07-29T13:50:41;2.95;;;1.85;;
46290;SDS011;32023;44.444;26.006;2023-07-29T13:53:08;2.72;;;1.70;;
46290;SDS011;32023;44.444;26.006;2023-07-29T13:55:35;3.25;;;1.50;;
46290;SDS011;32023;44.444;26.006;2023-07-29T13:58:02;3.80;;;1.83;;
46290;SDS011;32023;44.444;26.006;2023-07-29T14:00:31;2.90;;;1.60;;
46290;SDS011;32023;44.444;26.006;2023-07-29T14:02:58;2.05;;;1.58;;
46290;SDS011;32023;44.444;26.006;2023-07-29T14:05:24;2.97;;;1.98;;
46290;SDS011;32023;44.444;26.006;2023-07-29T14:07:50;4.00;;;1.95;;
46290;SDS011;32023;44.444;26.006;2023-07-29T14:10:16;1.75;;;1.48;;
46290;SDS011;32023;44.444;26.006;2023-07-29T14:12:43;3.95;;;1.63;;
46290;SDS011;32023;44.444;26.006;2023-07-29T14:15:09;4.68;;;2.13;;
46290;SDS011;32023;44.444;26.006;2023-07-29T14:17:35;3.65;;;1.50;;
46290;SDS011;32023;44.444;26.006;2023-07-29T14:20:02;4.28;;;2.08;;
46290;SDS011;32023;44.444;26.006;2023-07-29T14:22:30;3.90;;;1.50;;
46290;SDS011;32023;44.444;26.006;2023-07-29T14:24:56;3.30;;;1.75;;
46290;SDS011;32023;44.444;26.006;2023-07-29T14:27:24;2.22;;;1.48;;
46290;SDS011;32023;44.444;26.006;2023-07-29T14:29:51;2.15;;;1.85;;
46290;SDS011;32023;44.444;26.006;2023-07-29T14:32:17;2.17;;;1.50;;
46290;SDS011;32023;44.444;26.006;2023-07-29T14:34:43;3.60;;;2.03;;
46290;SDS011;32023;44.444;26.006;2023-07-29T14:37:10;4.88;;;1.77;;
46290;SDS011;32023;44.444;26.006;2023-07-29T14:39:36;5.10;;;2.13;;
46290;SDS011;32023;44.444;26.006;2023-07-29T14:42:03;4.53;;;2.22;;
46290;SDS011;32023;44.444;26.006;2023-07-29T14:44:29;2.72;;;1.70;;
46290;SDS011;32023;44.444;26.006;2023-07-29T14:46:58;4.03;;;2.03;;
46290;SDS011;32023;44.444;26.006;2023-07-29T14:49:27;3.93;;;2.00;;
46290;SDS011;32023;44.444;26.006;2023-07-29T14:51:54;2.05;;;1.38;;
46290;SDS011;32023;44.444;26.006;2023-07-29T14:54:20;2.05;;;1.80;;
46290;SDS011;32023;44.444;26.006;2023-07-29T14:56:46;7.68;;;2.25;;
46290;SDS011;32023;44.444;26.006;2023-07-29T14:59:12;2.95;;;2.00;;